CheckWX is a tool to help pilots better visualize weather data.  It is not intended as a substitute for an official pre-flight weather briefing.

10:41:53 UTC

KROG TAF
Rogers Executive - Carter Field Airport
Rogers, Arkansas, USA
KROG 170520Z 1706/1806 12005KT P6SM SCT250 FM171400 18007KT P6SM SCT250

Sep-17@
06:00 UTC

Sep-17 @ 06:00 UTC

Sep-17@
14:00 UTC

Sep-17 @ 14:00 UTC

KROG 170520Z 1706/1806 12005KT P6SM SCT250
Wind
  • 120° at 5 KTS
Cloud Levels
  • Scattered at 25,000' AGL

Sep-17@
14:00 UTC

Sep-17 @ 14:00 UTC

Sep-18@
06:00 UTC

Sep-18 @ 06:00 UTC

FM171400 18007KT P6SM SCT250

From

From Standard forecast or significant change

Wind
  • 180° at 7 KTS
Cloud Levels
  • Scattered at 25,000' AGL